Latest Weather Observations for Gooseberry Hill

IDW60801

Issued at 2:53 pm WST Thursday 18 July 2019 (issued every 10 minutes, with the page automatically refreshed every 10 minutes)

About weather observations | Map of weather stations | Latest weather observations for WA | Other Formats
Station Details ID: 009204 Name: GOOSEBERRY HILL Lat: -31.94 Lon: 116.05 Height: 220.0 m
Data from the previous 72 hours. | See also: Recent months at Gooseberry Hill
Date/Time
WST
Temp
°C
App
Temp
°C
Dew
Point
°C
Rel
Hum
%
Delta-T
°C
Wind Press
QNH
hPa
Press
MSL
hPa
Rain since
9am
mm
Dir  Spd
km/h
Gust
km/h
Spd
kts
Gust
kts
18/02:30pm 18.1 17.9 13.0 72 2.9 NNW 6 11 3 6 - - -
18/02:00pm 17.6 17.1 12.7 73 2.8 N 7 11 4 6 - - -
18/01:30pm 17.5 16.6 12.6 73 2.8 N 9 17 5 9 - - -
18/01:00pm 17.0 16.5 12.5 75 2.5 NNE 7 11 4 6 - - -
18/12:30pm 16.2 15.6 12.2 77 2.2 NNE 7 11 4 6 - - -
18/12:00pm 16.3 15.6 12.1 76 2.3 NNE 7 11 4 6 - - -
18/11:30am 16.2 15.8 12.4 78 2.1 N 6 9 3 5 - - -
18/11:00am 15.9 15.6 12.6 81 1.8 NNE 6 9 3 5 - - -
18/10:30am 14.9 14.2 11.5 80 1.8 NNE 6 9 3 5 - - -
18/10:00am 14.7 13.9 11.8 83 1.6 NE 7 13 4 7 - - -
18/09:30am 13.6 12.4 11.5 87 1.1 ENE 9 13 5 7 - - -
18/09:00am 13.8 13.1 12.0 89 1.0 ENE 7 11 4 6 - - -
18/08:30am 13.4 12.2 11.6 89 1.0 ENE 9 11 5 6 - - -
18/08:00am 12.6 11.1 11.8 95 0.4 E 11 13 6 7 - - -
18/07:30am 12.6 10.7 11.8 95 0.4 E 13 15 7 8 - - -
18/07:00am 12.6 11.9 12.1 97 0.3 E 7 11 4 6 - - -
18/06:30am 12.7 11.4 12.5 99 0.1 ENE 11 13 6 7 - - -
18/06:00am 12.7 12.4 12.7 100 0.0 ENE 6 7 3 4 - - -
18/05:30am 12.6 12.0 12.3 98 0.2 ENE 7 9 4 5 - - -
18/05:00am 12.7 11.5 11.6 93 0.6 SSW 9 15 5 8 - - -
18/04:30am 13.8 14.1 11.0 83 1.5 CALM 0 0 0 0 - - -
18/04:00am 13.9 13.8 10.7 81 1.7 NE 2 6 1 3 - - -
18/03:30am 13.6 12.6 10.4 81 1.7 NE 6 7 3 4 - - -
18/03:00am 13.5 12.9 10.3 81 1.7 NE 4 7 2 4 - - -
18/02:30am 13.6 12.6 10.4 81 1.7 NE 6 9 3 5 - - -
18/02:00am 13.8 12.8 10.4 80 1.8 ENE 6 7 3 4 - - -
18/01:30am 13.8 12.8 10.2 79 1.9 ENE 6 7 3 4 - - -
18/01:00am 13.9 13.7 10.3 79 1.9 NE 2 4 1 2 - - -
18/12:30am 14.0 13.3 10.2 78 2.0 NNE 4 6 2 3 - - -
18/12:00am 14.0 13.0 10.2 78 2.0 NW 6 7 3 4 - - -
 
Date/Time
WST
Temp
°C
App
Temp
°C
Dew
Point
°C
Rel
Hum
%
Delta-T
°C
Wind Press
QNH
hPa
Press
MSL
hPa
Rain since
9am
mm
Dir  Spd
km/h
Gust
km/h
Spd
kts
Gust
kts
17/11:30pm 14.1 13.5 10.3 78 2.0 WNW 4 7 2 4 - - -
17/11:00pm 14.3 13.3 10.3 77 2.1 WNW 6 7 3 4 - - -
17/10:30pm 14.4 13.2 10.2 76 2.2 WNW 7 9 4 5 - - -
17/10:00pm 14.3 13.5 9.7 74 2.4 NW 4 6 2 3 - - -
17/09:30pm 14.8 13.7 9.8 72 2.6 W 6 7 3 4 - - -
17/09:00pm 14.6 13.3 9.8 73 2.5 W 7 11 4 6 - - -
17/08:30pm 14.6 13.2 9.6 72 2.6 WSW 7 11 4 6 - - -
17/08:00pm 14.7 12.9 9.5 71 2.7 WSW 9 11 5 6 - - -
17/07:30pm 14.9 12.7 9.3 69 2.9 WSW 11 15 6 8 - - -
17/07:00pm 15.2 13.0 9.3 68 3.1 W 11 15 6 8 - - -
17/06:30pm 15.2 12.6 9.3 68 3.1 W 13 15 7 8 - - -
17/06:00pm 15.4 12.9 9.7 69 3.0 WSW 13 19 7 10 - - -
17/05:30pm 16.1 13.2 9.8 66 3.3 WSW 15 22 8 12 - - -
17/05:00pm 16.9 13.5 9.3 61 4.0 WSW 17 24 9 13 - - -
17/04:30pm 17.5 13.3 8.1 54 4.8 WSW 20 32 11 17 - - -
17/04:00pm 18.3 13.5 4.5 40 6.7 W 19 28 10 15 - - -
17/03:30pm 18.6 13.7 4.0 38 7.0 WSW 19 26 10 14 - - -
17/03:00pm 19.2 14.2 3.8 36 7.4 W 19 30 10 16 - - -
17/02:30pm 19.4 14.2 3.6 35 7.5 W 20 30 11 16 - - -
17/02:00pm 20.6 17.0 5.0 36 7.7 WNW 13 22 7 12 - - -
17/01:30pm 20.5 17.3 5.3 37 7.6 WNW 11 24 6 13 - - -
17/01:00pm 20.6 18.2 6.9 41 7.0 NNW 9 13 5 7 - - -
17/12:30pm 19.9 17.4 6.6 42 6.8 NNW 9 17 5 9 - - -
17/12:00pm 19.1 16.7 6.9 45 6.2 N 9 13 5 7 - - -
17/11:30am 18.2 15.7 6.4 46 5.9 N 9 13 5 7 - - -
17/11:00am 18.0 14.7 6.2 46 5.9 N 13 19 7 10 - - -
17/10:30am 17.1 14.0 5.7 47 5.6 NNE 11 13 6 7 - - -
17/10:00am 16.1 13.4 5.4 49 5.2 NE 9 13 5 7 - - -
17/09:30am 14.6 11.4 5.1 53 4.5 ENE 11 15 6 8 - - -
17/09:00am 13.6 9.6 5.0 56 4.0 E 15 19 8 10 - - -
17/08:30am 12.6 8.2 4.6 58 3.7 E 17 22 9 12 - - -
17/08:00am 12.3 7.4 4.3 58 3.7 E 19 24 10 13 - - -
17/07:30am 11.4 5.9 3.9 60 3.4 E 22 28 12 15 - - -
17/07:00am 11.1 5.6 4.1 62 3.2 E 22 26 12 14 - - -
17/06:30am 10.8 5.3 4.0 63 3.1 E 22 30 12 16 - - -
17/06:00am 10.9 5.1 4.4 64 3.0 E 24 30 13 16 - - -
17/05:30am 10.8 5.0 4.5 65 2.9 E 24 33 13 18 - - -
17/05:00am 10.4 5.0 4.5 67 2.7 E 22 30 12 16 - - -
17/04:30am 10.6 4.8 4.5 66 2.8 E 24 30 13 16 - - -
17/04:00am 10.8 5.1 4.7 66 2.8 E 24 32 13 17 - - -
17/03:30am 11.2 5.5 4.9 65 2.9 E 24 32 13 17 - - -
17/03:00am 11.6 6.9 5.0 64 3.1 E 19 28 10 15 - - -
17/02:30am 10.9 5.6 5.2 68 2.6 E 22 28 12 15 - - -
17/02:00am 12.2 7.9 5.1 62 3.3 E 17 20 9 11 - - -
17/01:30am 12.4 7.7 5.1 61 3.4 E 19 22 10 12 - - -
17/01:00am 13.0 8.7 5.2 59 3.7 E 17 20 9 11 - - -
17/12:30am 12.7 8.8 5.4 61 3.4 E 15 19 8 10 - - -
17/12:00am 12.4 7.8 5.8 64 3.1 ESE 19 24 10 13 - - -
 
Date/Time
WST
Temp
°C
App
Temp
°C
Dew
Point
°C
Rel
Hum
%
Delta-T
°C
Wind Press
QNH
hPa
Press
MSL
hPa
Rain since
9am
mm
Dir  Spd
km/h
Gust
km/h
Spd
kts
Gust
kts
16/11:30pm 13.2 8.7 6.1 62 3.4 E 19 24 10 13 - - -
16/11:00pm 13.3 8.6 5.2 58 3.8 E 19 24 10 13 - - -
16/10:30pm 13.6 9.7 5.5 58 3.9 ESE 15 22 8 12 - - -
16/10:00pm 13.0 9.4 4.9 58 3.8 ESE 13 20 7 11 - - -
16/09:30pm 13.4 9.8 4.8 56 4.0 ESE 13 19 7 10 - - -
16/09:00pm 13.5 9.9 4.9 56 4.0 ESE 13 17 7 9 - - -
16/08:30pm 15.2 11.9 4.3 48 5.1 SSE 11 17 6 9 - - -
16/08:00pm 15.2 11.5 4.3 48 5.1 SSE 13 17 7 9 - - -
16/07:30pm 15.2 11.2 4.9 50 4.9 SSE 15 19 8 10 - - -
16/07:00pm 15.4 11.4 5.0 50 5.0 S 15 20 8 11 - - -
16/06:30pm 15.4 11.9 5.3 51 4.8 S 13 19 7 10 - - -
16/06:00pm 15.5 12.2 4.3 47 5.3 SSW 11 17 6 9 - - -
16/05:30pm 15.8 12.0 3.9 45 5.6 SSW 13 17 7 9 - - -
16/05:00pm 16.7 13.1 5.0 46 5.6 SSW 13 19 7 10 - - -
16/04:30pm 17.2 13.6 4.9 44 5.9 SW 13 17 7 9 - - -
16/04:00pm 17.8 14.7 5.4 44 6.1 SSW 11 17 6 9 - - -
16/03:30pm 18.6 16.2 5.1 41 6.6 SW 7 13 4 7 - - -
16/03:00pm 19.1 17.3 5.2 40 6.8 WSW 4 7 2 4 - - -
16/02:30pm 19.4 17.9 6.8 44 6.4 SW 4 9 2 5 - - -
16/02:00pm 20.0 18.5 6.7 42 6.8 NW 4 7 2 4 - - -
16/01:30pm 18.8 16.9 6.9 46 6.0 SW 6 11 3 6 - - -
16/01:00pm 19.8 17.7 6.5 42 6.7 NW 7 13 4 7 - - -
16/12:30pm 18.8 16.3 6.6 45 6.2 NNW 9 13 5 7 - - -
16/12:00pm 18.2 16.2 7.0 48 5.7 N 7 17 4 9 - - -
16/11:30am 18.1 15.7 7.2 49 5.5 N 9 15 5 8 - - -
16/11:00am 17.6 14.8 7.1 50 5.3 N 11 17 6 9 - - -
16/10:30am 15.7 12.5 5.3 50 5.0 NE 11 20 6 11 - - -
16/10:00am 15.1 12.5 6.1 55 4.4 NE 9 17 5 9 - - -
16/09:30am 14.1 11.0 5.7 57 4.0 ENE 11 17 6 9 - - -
16/09:00am 12.7 8.7 4.9 59 3.6 ENE 15 19 8 10 - - -
16/08:30am 11.3 6.5 4.7 64 3.0 E 19 22 10 12 - - -
16/08:00am 10.7 5.7 4.4 65 2.9 ENE 20 24 11 13 - - -
16/07:30am 9.9 4.8 4.3 68 2.5 ENE 20 22 11 12 - - -
16/07:00am 10.2 5.1 4.1 66 2.7 ENE 20 24 11 13 - - -
16/06:30am 10.2 5.2 4.4 67 2.6 E 20 28 11 15 - - -
16/06:00am 10.7 5.7 4.4 65 2.9 ENE 20 24 11 13 - - -
16/05:30am 10.8 5.8 4.5 65 2.9 ENE 20 24 11 13 - - -
16/05:00am 11.0 6.2 4.7 65 2.9 ENE 19 24 10 13 - - -
16/04:30am 10.8 5.4 4.7 66 2.8 ENE 22 32 12 17 - - -
16/04:00am 11.2 5.5 5.1 66 2.8 ENE 24 32 13 17 - - -
16/03:30am 11.6 5.2 5.0 64 3.1 ENE 28 35 15 19 - - -
16/03:00am 11.8 5.4 5.2 64 3.1 ENE 28 37 15 20 - - -
16/02:30am 12.0 5.7 5.6 65 3.0 ENE 28 39 15 21 - - -
16/02:00am 11.8 4.7 5.7 66 2.9 ENE 32 41 17 22 - - -
16/01:30am 11.6 4.9 5.7 67 2.8 E 30 39 16 21 - - -
16/01:00am 11.5 4.3 5.8 68 2.7 E 33 43 18 23 - - -
16/12:30am 11.9 4.8 6.2 68 2.7 E 33 41 18 22 - - -
16/12:00am 12.1 5.5 6.2 67 2.8 E 30 39 16 21 - - -
 
Date/Time
WST
Temp
°C
App
Temp
°C
Dew
Point
°C
Rel
Hum
%
Delta-T
°C
Wind Press
QNH
hPa
Press
MSL
hPa
Rain since
9am
mm
Dir  Spd
km/h
Gust
km/h
Spd
kts
Gust
kts
15/11:30pm 11.9 6.1 6.2 68 2.7 E 26 33 14 18 - - -
15/11:00pm 12.1 6.3 6.2 67 2.8 E 26 35 14 19 - - -
15/10:30pm 12.3 6.5 6.1 66 3.0 E 26 35 14 19 - - -
15/10:00pm 12.7 7.2 6.1 64 3.2 E 24 32 13 17 - - -
15/09:30pm 13.1 8.4 6.0 62 3.4 E 20 26 11 14 - - -
15/09:00pm 13.7 9.0 6.1 60 3.7 E 20 26 11 14 - - -
15/08:30pm 14.0 9.5 6.1 59 3.8 E 19 24 10 13 - - -
15/08:00pm 14.1 9.4 6.2 59 3.8 E 20 24 11 13 - - -
15/07:30pm 14.2 9.7 6.1 58 3.9 E 19 20 10 11 - - -
15/07:00pm 14.6 10.1 6.2 57 4.1 E 19 20 10 11 - - -
15/06:30pm 14.6 10.5 6.2 57 4.1 E 17 20 9 11 - - -
15/06:00pm 15.0 10.9 6.0 55 4.4 ENE 17 22 9 12 - - -
15/05:30pm 15.3 11.2 6.3 55 4.4 ENE 17 24 9 13 - - -
15/05:00pm 16.1 12.1 6.5 53 4.7 ENE 17 24 9 13 - - -
15/04:30pm 16.8 13.1 6.3 50 5.2 ENE 15 20 8 11 - - -
15/04:00pm 17.4 14.7 7.2 51 5.2 NE 11 19 6 10 - - -
15/03:30pm 17.6 14.3 6.2 47 5.7 ENE 13 19 7 10 - - -
15/03:00pm 17.6 13.6 6.8 49 5.4 NE 17 20 9 11 - - -

Other formats

Comma delimited format used in spreadsheet applications
http://www.bom.gov.au/fwo/IDW60801/IDW60801.94615.axf

JavaScript Object Notation format (JSON) in row-major order
http://www.bom.gov.au/fwo/IDW60801/IDW60801.94615.json

Data quality

Most of these data are generated automatically and are frequently updated. Quality checks on data are not normally performed. It is possible for incorrect values to appear. Refer to information at About Latest Weather Observations and please check the disclaimer before using these data.